Airfield :
LOGIN :

Register | Disclaimer

   EN    FR    IT 

 










Legend :    VFR   Marginal VFR   IFR   Intensive IFR   Very Intensive IFR
Visi :
Ceiling :
>= 8 km
>= 3000ft
5 to 8 km
1000 to 3000 ft
1500m to 5 km
500 to 1000 ft
800 to 1500m
200 to 500 ft
< 800m
< 200 ft
Symbols :   Thunderstorms  Fog  Heavy snow  Heavy precipitations  Wind > 20 kt
SIGMETs :     Misc.  Thunderstorms  Icing  Turbulence  Mountain Waves  Volcanic Ashes






- Airport Elevation : 726 ft
- IATA code : DIJ


LFSD - Dijon

CURRENT METAR :
  • 220100Z AUTO 19012KT 7000 -RA FEW011/// SCT023/// OVC037/// //////TCU 08/07 Q1011

EXPIRED METARs :
  • 220030Z AUTO 19012KT 9999 RA BKN008/// BKN013/// BKN018/// ///TCU 08/08 Q1011
  • 220000Z AUTO 19010KT 7000 -RA BKN010/// BKN027/// BKN032/// ///TCU 08/08 Q1012
  • 212330Z AUTO 20010KT 9999 -DZ FEW033 SCT042 BKN050 08/07 Q1012
  • 212300Z AUTO 20011KT 9999 BKN047 BKN062 BKN078 08/07 Q1013
  • 212230Z AUTO 21014KT 9999 -RA ///TCU 09/07 Q1013
  • 212200Z AUTO 21013KT 180V240 9999 -RA ///CB 09/07 Q1013
  • 212130Z AUTO 21013KT 9999 -RA ///TCU 09/07 Q1014
  • 212100Z AUTO 22011KT 9999 -RA ///TCU 10/07 Q1014
  • 212030Z AUTO 23012KT 9999 -RA NSC 10/06 Q1014

Expired Forecast.



MET'MAP, your aeronautical weather chart ! - Copyright ORBIFLY December 2007 - Disclaimer

ORBIFLY MET'MAP TEAM :

Programming & Development : Alexandra Zaïnal
Original concept : Baudouin d'Aumeries
Technical & hardware support : Manuel Goepfert
Assistance : Marc-Olivier Méhu




SOURCES & CREDITS :

   NOAA